createdAt,value
2016-05-12T00:00:48.667Z,54.12
2016-05-12T00:01:48.575Z,54.03
2016-05-12T00:02:48.547Z,53.93
2016-05-12T00:03:48.534Z,54.41
2016-05-12T00:04:48.505Z,54.6
2016-05-12T00:05:48.492Z,54.7
2016-05-12T00:06:48.479Z,54.89
2016-05-12T00:07:48.451Z,54.7
2016-05-12T00:08:48.438Z,54.99
2016-05-12T00:09:48.409Z,54.89
2016-05-12T00:10:48.397Z,54.79
2016-05-12T00:11:48.383Z,55.15
2016-05-12T00:12:48.355Z,55.63
2016-05-12T00:13:48.343Z,55.63
2016-05-12T00:14:48.313Z,55.82
2016-05-12T00:15:48.301Z,55.53
2016-05-12T00:16:48.271Z,55.24
2016-05-12T00:17:48.259Z,55.53
2016-05-12T00:18:48.246Z,55.82
2016-05-12T00:19:48.218Z,56.1
2016-05-12T00:20:48.204Z,56.1
2016-05-12T00:21:48.176Z,56.1
2016-05-12T00:22:48.162Z,55.91
2016-05-12T00:23:48.135Z,56.1
2016-05-12T00:24:48.123Z,56.2
2016-05-12T00:25:48.109Z,56.39
2016-05-12T00:26:48.095Z,56.3
2016-05-12T00:27:48.067Z,56.39
2016-05-12T00:28:48.038Z,56.39
2016-05-12T00:29:48.025Z,56.59
2016-05-12T00:30:48.013Z,57.16
2016-05-12T00:31:47.984Z,57.06
2016-05-12T00:32:47.972Z,56.68
2016-05-12T00:33:47.942Z,57.54
2016-05-12T00:34:47.930Z,57.54
2016-05-12T00:35:47.902Z,56.97
2016-05-12T00:36:47.888Z,57.73
2016-05-12T00:37:47.875Z,57.26
2016-05-12T00:38:47.847Z,57.51
2016-05-12T00:39:47.834Z,57.83
2016-05-12T00:40:47.805Z,57.8
2016-05-12T00:41:47.793Z,57.7
2016-05-12T00:42:47.763Z,57.61
2016-05-12T00:43:47.751Z,57.9
2016-05-12T00:44:47.721Z,57.64
2016-05-12T00:45:47.709Z,58.28
2016-05-12T00:46:47.682Z,58.09
2016-05-12T00:47:47.668Z,58.09
2016-05-12T00:48:47.655Z,57.99
2016-05-12T00:49:47.626Z,57.99
2016-05-12T00:50:47.613Z,58.66
2016-05-12T00:51:47.584Z,58.95
2016-05-12T00:52:47.572Z,58.86
2016-05-12T00:53:47.543Z,58.76
2016-05-12T00:54:47.531Z,58.86
2016-05-12T00:55:47.501Z,58.66
2016-05-12T00:56:47.489Z,58.56
2016-05-12T00:57:47.476Z,58.95
2016-05-12T00:58:47.448Z,58.86
2016-05-12T00:59:47.434Z,59.14
2016-05-12T01:00:47.405Z,59.05
2016-05-12T01:01:47.393Z,59.43
2016-05-12T01:02:47.365Z,59.43
2016-05-12T01:03:47.352Z,59.62
2016-05-12T01:04:47.322Z,59.62
2016-05-12T01:05:47.310Z,59.43
2016-05-12T01:06:47.281Z,59.52
2016-05-12T01:07:47.269Z,59.72
2016-05-12T01:08:47.256Z,60.29
2016-05-12T01:09:47.227Z,60
2016-05-12T01:10:47.214Z,59.91
2016-05-12T01:11:47.185Z,59.81
2016-05-12T01:12:47.172Z,60
2016-05-12T01:13:47.144Z,60.1
2016-05-12T01:14:47.132Z,60.58
2016-05-12T01:15:47.103Z,60.58
2016-05-12T01:16:47.090Z,60.38
2016-05-12T01:17:47.060Z,60.29
2016-05-12T01:18:47.048Z,60.38
2016-05-12T01:19:47.035Z,60.06
2016-05-12T01:20:47.006Z,60.45
2016-05-12T01:21:46.994Z,60.67
2016-05-12T01:22:46.965Z,60.74
2016-05-12T01:23:46.952Z,60.93
2016-05-12T01:24:46.924Z,60.93
2016-05-12T01:25:46.911Z,60.83
2016-05-12T01:26:46.882Z,60.74
2016-05-12T01:27:46.869Z,61.41
2016-05-12T01:28:46.840Z,61.12
2016-05-12T01:29:46.828Z,61.22
2016-05-12T01:30:46.800Z,61.02
2016-05-12T01:31:46.786Z,61.02
2016-05-12T01:32:46.758Z,61.12
2016-05-12T01:33:46.744Z,61.69
2016-05-12T01:34:46.731Z,61.6
2016-05-12T01:35:46.703Z,61.69
2016-05-12T01:36:46.691Z,61.31
2016-05-12T01:37:46.662Z,61.6
2016-05-12T01:38:46.649Z,61.51
2016-05-12T01:39:46.636Z,61.6
2016-05-12T01:40:46.607Z,61.6
2016-05-12T01:41:46.580Z,61.69
2016-05-12T01:42:46.566Z,62.27
2016-05-12T01:43:46.537Z,62.17
2016-05-12T01:44:46.524Z,62.37
2016-05-12T01:45:46.496Z,62.46
2016-05-12T01:46:46.483Z,62.17
2016-05-12T01:47:46.454Z,62.46
2016-05-12T01:48:46.441Z,62.74
2016-05-12T01:49:46.413Z,62.27
2016-05-12T01:50:46.399Z,62.46
2016-05-12T01:51:46.371Z,62.74
2016-05-12T01:52:46.359Z,62.46
2016-05-12T01:53:46.329Z,62.65
2016-05-12T01:54:46.317Z,62.65
2016-05-12T01:55:46.288Z,62.55
2016-05-12T01:56:46.276Z,63.13
2016-05-12T01:57:46.247Z,63
2016-05-12T01:58:46.234Z,62.94
2016-05-12T01:59:46.206Z,63.03
2016-05-12T02:00:46.192Z,63.32
2016-05-12T02:01:46.178Z,63.42
2016-05-12T02:02:46.150Z,63.32
2016-05-12T02:03:46.123Z,63.42
2016-05-12T02:04:46.109Z,63.32
2016-05-12T02:05:46.096Z,63.42
2016-05-12T02:06:46.067Z,63.29
2016-05-12T02:07:46.055Z,63.42
2016-05-12T02:08:46.027Z,62.94
2016-05-12T02:09:46.013Z,63.13
2016-05-12T02:10:46.000Z,63.48
2016-05-12T02:11:45.972Z,63.57
2016-05-12T02:12:45.943Z,63.48
2016-05-12T02:13:45.930Z,63.29
2016-05-12T02:14:45.902Z,63.29
2016-05-12T02:15:45.888Z,63.29
2016-05-12T02:16:45.861Z,63.57
2016-05-12T02:17:45.847Z,63.6
2016-05-12T02:18:45.818Z,63.96
2016-05-12T02:19:45.807Z,64.15
2016-05-12T02:20:45.777Z,63.48
2016-05-12T02:21:45.765Z,63.96
2016-05-12T02:22:45.735Z,63.76
2016-05-12T02:23:45.723Z,63.39
2016-05-12T02:24:45.695Z,63.48
2016-05-12T02:25:45.682Z,63.96
2016-05-12T02:26:45.653Z,64.15
2016-05-12T02:27:45.640Z,63.96
2016-05-12T02:28:45.611Z,64.25
2016-05-12T02:29:45.598Z,64.05
2016-05-12T02:30:45.570Z,64.15
2016-05-12T02:31:45.557Z,64.15
2016-05-12T02:32:45.529Z,63.76
2016-05-12T02:33:45.515Z,64.15
2016-05-12T02:34:45.486Z,64.34
2016-05-12T02:35:45.475Z,64.43
2016-05-12T02:36:45.445Z,64.34
2016-05-12T02:37:45.432Z,64.34
2016-05-12T02:38:45.404Z,64.82
2016-05-12T02:39:45.391Z,64.91
2016-05-12T02:40:45.363Z,64.72
2016-05-12T02:41:45.350Z,64.72
2016-05-12T02:42:45.321Z,64.62
2016-05-12T02:43:45.308Z,64.82
2016-05-12T02:44:45.279Z,64.72
2016-05-12T02:45:45.266Z,64.62
2016-05-12T02:46:45.238Z,64.72
2016-05-12T02:47:45.225Z,64.72
2016-05-12T02:48:45.196Z,64.25
2016-05-12T02:49:45.183Z,65.11
2016-05-12T02:50:45.155Z,64.91
2016-05-12T02:51:45.127Z,64.82
2016-05-12T02:52:45.113Z,65.11
2016-05-12T02:53:45.101Z,65.3
2016-05-12T02:54:45.071Z,65.39
2016-05-12T02:55:45.043Z,65.39
2016-05-12T02:56:45.030Z,65.36
2016-05-12T02:57:45.001Z,65.3
2016-05-12T02:58:44.990Z,65.01
2016-05-12T02:59:44.960Z,65.01
2016-05-12T03:00:44.948Z,65.01
2016-05-12T03:01:44.919Z,64.72
2016-05-12T03:02:44.906Z,65.2
2016-05-12T03:03:44.877Z,65.2
2016-05-12T03:04:44.865Z,65.3
2016-05-12T03:05:44.836Z,64.82
2016-05-12T03:06:44.823Z,65.39
2016-05-12T03:07:44.794Z,65.3
2016-05-12T03:08:44.781Z,65.3
2016-05-12T03:09:44.753Z,65.17
2016-05-12T03:10:44.740Z,65.58
2016-05-12T03:11:44.711Z,65.64
2016-05-12T03:12:44.699Z,65.26
2016-05-12T03:13:44.670Z,65.45
2016-05-12T03:14:44.657Z,65.93
2016-05-12T03:15:44.628Z,65.74
2016-05-12T03:16:44.615Z,65.84
2016-05-12T03:17:44.588Z,65.55
2016-05-12T03:18:44.574Z,65.84
2016-05-12T03:19:44.546Z,65.55
2016-05-12T03:20:44.533Z,65.45
2016-05-12T03:21:44.504Z,65.64
2016-05-12T03:22:44.490Z,65.84
2016-05-12T03:23:44.462Z,66.13
2016-05-12T03:24:44.434Z,65.84
2016-05-12T03:25:44.421Z,65.93
2016-05-12T03:26:44.392Z,66.03
2016-05-12T03:27:44.379Z,65.64
2016-05-12T03:28:44.351Z,66.13
2016-05-12T03:29:44.337Z,66.22
2016-05-12T03:30:44.309Z,66.22
2016-05-12T03:31:44.296Z,65.84
2016-05-12T03:32:44.268Z,65.84
2016-05-12T03:33:44.255Z,65.84
2016-05-12T03:34:44.226Z,65.84
2016-05-12T03:35:44.213Z,65.55
2016-05-12T03:36:44.184Z,65.64
2016-05-12T03:37:44.172Z,66.22
2016-05-12T03:38:44.144Z,65.93
2016-05-12T03:39:44.115Z,65.55
2016-05-12T03:40:44.102Z,65.84
2016-05-12T03:41:44.072Z,66.03
2016-05-12T03:42:44.060Z,66.03
2016-05-12T03:43:44.032Z,65.93
2016-05-12T03:44:44.019Z,65.64
2016-05-12T03:45:43.990Z,65.84
2016-05-12T03:46:43.977Z,65.84
2016-05-12T03:47:43.949Z,66.03
2016-05-12T03:48:43.936Z,66.13
2016-05-12T03:49:43.907Z,66.13
2016-05-12T03:50:43.894Z,65.64
2016-05-12T03:51:43.866Z,65.64
2016-05-12T03:52:43.838Z,65.74
2016-05-12T03:53:43.824Z,65.74
2016-05-12T03:54:43.812Z,65.64
2016-05-12T03:55:43.782Z,65.55
2016-05-12T03:56:43.754Z,65.84
2016-05-12T03:57:43.741Z,65.93
2016-05-12T03:58:43.713Z,65.84
2016-05-12T03:59:43.701Z,65.84
2016-05-12T04:00:43.671Z,65.36
2016-05-12T04:01:43.659Z,65.26
2016-05-12T04:02:43.629Z,65.55
2016-05-12T04:03:43.617Z,65.45
2016-05-12T04:04:43.589Z,65.45
2016-05-12T04:05:43.576Z,65.45
2016-05-12T04:06:43.547Z,65.36
2016-05-12T04:07:43.534Z,65.55
2016-05-12T04:08:43.505Z,65.36
2016-05-12T04:09:43.492Z,65.17
2016-05-12T04:10:43.464Z,65.36
2016-05-12T04:11:43.451Z,65.26
2016-05-12T04:12:43.422Z,65.17
2016-05-12T04:13:43.409Z,65.55
2016-05-12T04:14:43.380Z,65.55
2016-05-12T04:15:43.368Z,65.55
2016-05-12T04:16:43.339Z,65.36
2016-05-12T04:17:43.310Z,65.55
2016-05-12T04:18:43.298Z,65.36
2016-05-12T04:19:43.269Z,65.55
2016-05-12T04:20:43.257Z,65.55
2016-05-12T04:21:43.227Z,65.36
2016-05-12T04:22:43.215Z,65.55
2016-05-12T04:23:43.185Z,65.36
2016-05-12T04:24:43.173Z,65.55
2016-05-12T04:25:43.145Z,65.55
2016-05-12T04:26:43.132Z,65.55
2016-05-12T04:27:43.103Z,65.17
2016-05-12T04:28:43.090Z,65.26
2016-05-12T04:29:43.062Z,65.17
2016-05-12T04:30:43.049Z,65.26
2016-05-12T04:31:43.020Z,65.26
2016-05-12T04:32:42.992Z,64.98
2016-05-12T04:33:42.979Z,65.17
2016-05-12T04:34:42.965Z,64.98
2016-05-12T04:35:42.953Z,64.88
2016-05-12T04:36:42.924Z,64.88
2016-05-12T04:37:42.896Z,64.59
2016-05-12T04:38:42.884Z,64.59
2016-05-12T04:39:42.854Z,64.82
2016-05-12T04:40:42.825Z,64.82
2016-05-12T04:41:42.813Z,64.72
2016-05-12T04:42:42.861Z,64.15
2016-05-12T04:43:42.772Z,64.15
2016-05-12T04:44:42.759Z,63.86
2016-05-12T04:45:42.730Z,63.86
2016-05-12T04:46:42.702Z,64.05
2016-05-12T04:47:42.688Z,64.05
2016-05-12T04:48:42.675Z,63.76
2016-05-12T04:49:42.646Z,63.76
2016-05-12T04:50:42.634Z,64.05
2016-05-12T04:51:42.621Z,64.15
2016-05-12T04:52:42.593Z,63.76
2016-05-12T04:53:42.563Z,63.29
2016-05-12T04:54:42.551Z,63.48
2016-05-12T04:55:42.522Z,63.67
2016-05-12T04:56:42.510Z,63.67
2016-05-12T04:57:42.481Z,63.57
2016-05-12T04:58:42.468Z,63.48
2016-05-12T04:59:42.440Z,63.48
2016-05-12T05:00:42.426Z,63.19
2016-05-12T05:01:42.413Z,63.1
2016-05-12T05:02:42.384Z,63.1
2016-05-12T05:03:42.357Z,63.19
2016-05-12T05:04:42.343Z,63.1
2016-05-12T05:05:42.331Z,62.71
2016-05-12T05:06:42.302Z,62.94
2016-05-12T05:07:42.273Z,62.74
2016-05-12T05:08:42.261Z,62.37
2016-05-12T05:09:42.231Z,62.55
2016-05-12T05:10:42.219Z,62.17
2016-05-12T05:11:43.300Z,62.74
2016-05-12T05:12:42.178Z,62.17
2016-05-12T05:13:42.164Z,62.17
2016-05-12T05:14:42.136Z,61.6
2016-05-12T05:15:42.122Z,61.31
2016-05-12T05:16:42.094Z,61.6
2016-05-12T05:17:42.081Z,61.22
2016-05-12T05:18:42.053Z,60.93
2016-05-12T05:19:42.133Z,61.41
2016-05-12T05:20:42.011Z,60.67
2016-05-12T05:21:41.999Z,61.05
2016-05-12T05:22:41.985Z,60.77
2016-05-12T05:23:41.958Z,60.35
2016-05-12T05:24:41.944Z,60.29
2016-05-12T05:25:41.916Z,60.48
2016-05-12T05:26:41.902Z,60.1
2016-05-12T05:27:41.874Z,59.91
2016-05-12T05:28:41.860Z,59.72
2016-05-12T05:29:41.832Z,59.52
2016-05-12T05:30:41.820Z,59.43
2016-05-12T05:31:41.823Z,59.05
2016-05-12T05:32:41.778Z,59.14
2016-05-12T05:33:41.765Z,58.76
2016-05-12T05:34:41.737Z,58.69
2016-05-12T05:35:41.723Z,58.56
2016-05-12T05:36:41.711Z,58.09
2016-05-12T05:37:41.681Z,58.22
2016-05-12T05:38:41.670Z,58.4
2016-05-12T05:39:41.641Z,57.83
2016-05-12T05:40:41.628Z,57.73
2016-05-12T05:41:41.615Z,57.54
2016-05-12T05:42:41.586Z,58.12
2016-05-12T05:43:41.572Z,57.26
2016-05-12T05:44:41.561Z,57.45
2016-05-12T05:45:41.531Z,57.06
2016-05-12T05:46:41.503Z,56.59
2016-05-12T05:47:41.491Z,56.32
2016-05-12T05:48:41.477Z,56.52
2016-05-12T05:49:41.449Z,56.13
2016-05-12T05:50:41.436Z,56.23
2016-05-12T05:51:41.422Z,55.46
2016-05-12T05:52:41.410Z,55.27
2016-05-12T05:53:41.381Z,55.75
2016-05-12T05:54:41.368Z,55.08
2016-05-12T05:55:41.356Z,54.79
2016-05-12T05:56:41.327Z,54.82
2016-05-12T05:57:41.311Z,55.01
2016-05-12T05:58:41.298Z,54.63
2016-05-12T05:59:41.270Z,54.05
2016-05-12T06:00:41.257Z,54.15
2016-05-12T06:01:41.244Z,54.34
2016-05-12T06:02:41.215Z,53.77
2016-05-12T06:03:41.202Z,53.58
2016-05-12T06:04:41.190Z,53
2016-05-12T06:05:41.177Z,52.91
2016-05-12T06:06:41.148Z,52.71
2016-05-12T06:07:41.135Z,52.74
2016-05-12T06:08:41.122Z,52.26
2016-05-12T06:09:41.109Z,52.16
2016-05-12T06:10:41.095Z,51.68
2016-05-12T06:11:41.084Z,51.32
2016-05-12T06:12:41.070Z,51.23
2016-05-12T06:13:41.042Z,50.94
2016-05-12T06:14:41.028Z,50.94
2016-05-12T06:15:41.016Z,50.65
2016-05-12T06:16:41.003Z,51.04
2016-05-12T06:17:40.990Z,50.56
2016-05-12T06:18:40.977Z,50.56
2016-05-12T06:19:40.949Z,50.37
2016-05-12T06:20:40.936Z,50.27
2016-05-12T06:21:40.922Z,49.69
2016-05-12T06:22:40.910Z,50.27
2016-05-12T06:23:40.897Z,49.6
2016-05-12T06:24:40.883Z,49.52
2016-05-12T06:25:40.871Z,49.05
2016-05-12T06:26:40.858Z,48.85
2016-05-12T06:27:40.830Z,49.05
2016-05-12T06:28:40.832Z,48.49
2016-05-12T06:29:40.804Z,48.47
2016-05-12T06:30:40.791Z,48.18
2016-05-12T06:31:40.777Z,47.89
2016-05-12T06:32:40.765Z,47.61
2016-05-12T06:33:40.751Z,48.21
2016-05-12T06:34:40.740Z,48.02
2016-05-12T06:35:40.726Z,47.34
2016-05-12T06:36:40.712Z,47.53
2016-05-12T06:37:40.701Z,46.96
2016-05-12T06:38:40.687Z,46.96
2016-05-12T06:39:40.674Z,47.25
2016-05-12T06:40:40.662Z,47.15
2016-05-12T06:41:40.634Z,46.58
2016-05-12T06:42:40.636Z,46.77
2016-05-12T06:43:40.607Z,46.67
2016-05-12T06:44:40.594Z,46.59
2016-05-12T06:45:40.581Z,46.31
2016-05-12T06:46:40.568Z,46.02
2016-05-12T06:47:40.555Z,46.31
2016-05-12T06:48:40.542Z,45.92
2016-05-12T06:49:40.529Z,45.92
2016-05-12T06:50:40.559Z,45.64
2016-05-12T06:51:40.589Z,45.54
2016-05-12T06:52:40.619Z,45.35
2016-05-12T06:53:40.649Z,45.54
2016-05-12T06:54:40.679Z,45.18
2016-05-12T06:55:40.682Z,44.89
2016-05-12T06:56:40.670Z,44.89
2016-05-12T06:57:40.687Z,44.7
2016-05-12T06:58:40.689Z,44.53
2016-05-12T06:59:40.691Z,44.34
2016-05-12T07:00:40.684Z,43.57
2016-05-12T07:01:40.896Z,43.76
2016-05-12T07:02:40.668Z,43.57
2016-05-12T07:03:40.646Z,43.66
2016-05-12T07:04:40.638Z,43.28
2016-05-12T07:05:40.627Z,43.47
2016-05-12T07:06:40.632Z,43.28
2016-05-12T07:07:40.621Z,43.08
2016-05-12T07:08:40.610Z,43.08
2016-05-12T07:09:40.599Z,42.43
2016-05-12T07:10:40.587Z,42.24
2016-05-12T07:11:40.575Z,42.14
2016-05-12T07:12:40.562Z,42.24
2016-05-12T07:13:40.550Z,41.86
2016-05-12T07:14:40.538Z,41.86
2016-05-12T07:15:40.525Z,41.95
2016-05-12T07:16:40.513Z,41.56
2016-05-12T07:17:40.500Z,41.86
2016-05-12T07:18:40.487Z,41.28
2016-05-12T07:19:40.475Z,40.99
2016-05-12T07:20:40.478Z,40.89
2016-05-12T07:21:40.464Z,40.91
2016-05-12T07:22:40.452Z,40.72
2016-05-12T07:23:40.439Z,40.81
2016-05-12T07:24:40.426Z,40.63
2016-05-12T07:25:40.414Z,40.24
2016-05-12T07:26:40.400Z,39.87
2016-05-12T07:27:40.386Z,39.87
2016-05-12T07:28:40.375Z,39.87
2016-05-12T07:29:40.377Z,39.39
2016-05-12T07:30:40.380Z,39.39
2016-05-12T07:31:40.352Z,39.39
2016-05-12T07:32:40.338Z,39.29
2016-05-12T07:33:40.325Z,38.72
2016-05-12T07:34:40.313Z,38.91
2016-05-12T07:35:40.299Z,38.72
2016-05-12T07:36:40.302Z,38.81
2016-05-12T07:37:40.289Z,38.81
2016-05-12T07:38:40.276Z,38.64
2016-05-12T07:39:40.263Z,38.54
2016-05-12T07:40:40.251Z,38.35
2016-05-12T07:41:40.238Z,37.96
2016-05-12T07:42:40.240Z,37.68
2016-05-12T07:43:40.212Z,37.7
2016-05-12T07:44:40.214Z,37.31
2016-05-12T07:45:40.202Z,37.21
2016-05-12T07:46:40.188Z,37.21
2016-05-12T07:47:40.176Z,36.94
2016-05-12T07:48:40.162Z,36.65
2016-05-12T07:49:40.165Z,36.55
2016-05-12T07:50:40.153Z,36.27
2016-05-12T07:51:40.139Z,36.27
2016-05-12T07:52:40.143Z,35.98
2016-05-12T07:53:40.114Z,36.07
2016-05-12T07:54:40.117Z,36.07
2016-05-12T07:55:40.103Z,36.27
2016-05-12T07:56:40.090Z,36.27
2016-05-12T07:57:40.078Z,35.59
2016-05-12T07:58:40.080Z,35.32
2016-05-12T07:59:40.067Z,35.4
2016-05-12T08:00:40.054Z,35.42
2016-05-12T08:01:40.791Z,35.13
2016-05-12T08:02:40.044Z,35.22
2016-05-12T08:03:40.031Z,34.94
2016-05-12T08:04:40.018Z,34.84
2016-05-12T08:05:40.005Z,35.13
2016-05-12T08:06:40.008Z,34.64
2016-05-12T08:07:39.995Z,34.64
2016-05-12T08:08:39.982Z,34.36
2016-05-12T08:09:39.968Z,33.98
2016-05-12T08:10:39.972Z,33.8
2016-05-12T08:11:39.960Z,33.52
2016-05-12T08:12:39.946Z,33.23
2016-05-12T08:13:39.933Z,33.04
2016-05-12T08:14:39.935Z,32.65
2016-05-12T08:15:39.938Z,32.65
2016-05-12T08:16:39.926Z,32.28
2016-05-12T08:17:39.912Z,31.99
2016-05-12T08:18:39.900Z,31.89
2016-05-12T08:19:39.887Z,31.8
2016-05-12T08:20:39.889Z,31.41
2016-05-12T08:21:39.877Z,31.41
2016-05-12T08:22:39.879Z,30.93
2016-05-12T08:23:39.866Z,30.93
2016-05-12T08:24:39.853Z,30.85
2016-05-12T08:25:39.872Z,30.65
2016-05-12T08:26:39.842Z,30.55
2016-05-12T08:27:39.830Z,30.65
2016-05-12T08:28:39.833Z,30.65
2016-05-12T08:29:39.819Z,30.85
2016-05-12T08:30:39.822Z,30.85
2016-05-12T08:31:40.122Z,30.65
2016-05-12T08:32:39.828Z,29.97
2016-05-12T08:33:39.800Z,29.69
2016-05-12T08:34:39.787Z,29.59
2016-05-12T08:35:39.789Z,29.88
2016-05-12T08:36:39.777Z,29.78
2016-05-12T08:37:39.763Z,29.39
2016-05-12T08:38:39.766Z,29.41
2016-05-12T08:39:39.753Z,29.32
2016-05-12T08:40:39.740Z,29.41
2016-05-12T08:41:39.743Z,29.41
2016-05-12T08:42:39.729Z,29.13
2016-05-12T08:43:39.732Z,29.12
2016-05-12T08:44:39.719Z,28.75
2016-05-12T08:45:39.722Z,28.85
2016-05-12T08:46:39.709Z,28.75
2016-05-12T08:47:39.696Z,28.75
2016-05-12T08:48:39.699Z,28.65
2016-05-12T08:49:39.686Z,28.36
2016-05-12T08:50:39.689Z,28.08
2016-05-12T08:51:39.692Z,27.7
2016-05-12T08:52:39.678Z,27.4
2016-05-12T08:53:39.665Z,27.31
2016-05-12T08:54:39.668Z,27.21
2016-05-12T08:55:39.655Z,26.82
2016-05-12T08:56:39.659Z,26.82
2016-05-12T08:57:39.645Z,27.01
2016-05-12T08:58:39.631Z,26.63
2016-05-12T08:59:39.635Z,26.26
2016-05-12T09:00:39.622Z,26.35
2016-05-12T09:01:39.858Z,25.96
2016-05-12T09:02:39.612Z,25.77
2016-05-12T09:03:39.614Z,25.58
2016-05-12T09:04:39.602Z,25.3
2016-05-12T09:05:39.604Z,24.61
2016-05-12T09:06:39.607Z,24.23
2016-05-12T09:07:39.610Z,24.04
2016-05-12T09:08:39.752Z,24.04
2016-05-12T09:09:39.693Z,24.13
2016-05-12T09:10:39.602Z,23.26
2016-05-12T09:11:39.574Z,23.55
2016-05-12T09:12:39.576Z,23.16
2016-05-12T09:13:39.579Z,23.37
2016-05-12T09:14:39.565Z,23.08
2016-05-12T09:15:39.553Z,22.9
2016-05-12T09:16:39.555Z,22.71
2016-05-12T09:17:39.605Z,22.03
2016-05-12T09:18:39.546Z,22.51
2016-05-12T09:19:39.548Z,22.22
2016-05-12T09:20:39.535Z,21.83
2016-05-12T09:21:39.616Z,21.65
2016-05-12T09:22:39.540Z,21.65
2016-05-12T09:23:39.528Z,21.36
2016-05-12T09:24:39.514Z,21.16
2016-05-12T09:25:39.517Z,21.45
2016-05-12T09:26:39.520Z,21.08
2016-05-12T09:27:39.506Z,21.37
2016-05-12T09:28:39.509Z,20.49
2016-05-12T09:29:39.497Z,20.59
2016-05-12T09:30:39.500Z,20.11
2016-05-12T09:31:39.580Z,20.31
2016-05-12T09:32:39.536Z,20.01
2016-05-12T09:33:39.492Z,20.01
2016-05-12T09:34:39.494Z,20.31
2016-05-12T09:35:39.481Z,20.31
2016-05-12T09:36:39.484Z,20.21
2016-05-12T09:37:39.472Z,20.11
2016-05-12T09:38:39.474Z,20.01
2016-05-12T09:39:39.477Z,20.03
2016-05-12T09:40:39.464Z,19.93
2016-05-12T09:41:39.466Z,19.54
2016-05-12T09:42:39.469Z,19.84
2016-05-12T09:43:39.456Z,19.74
2016-05-12T09:44:39.459Z,19.55
2016-05-12T09:45:39.462Z,19.55
2016-05-12T09:46:39.448Z,18.58
2016-05-12T09:47:39.452Z,18.68
2016-05-12T09:48:39.454Z,18.77
2016-05-12T09:49:39.441Z,18.68
2016-05-12T09:50:39.444Z,18.76
2016-05-12T09:51:39.446Z,18.57
2016-05-12T09:52:39.434Z,18.76
2016-05-12T09:53:39.436Z,18.75
2016-05-12T09:54:39.439Z,18.56
2016-05-12T09:55:39.426Z,18.47
2016-05-12T09:56:39.429Z,18.66
2016-05-12T09:57:39.431Z,18.57
2016-05-12T09:58:39.418Z,18.57
2016-05-12T09:59:39.420Z,18.76
2016-05-12T10:00:39.408Z,18.77
2016-05-12T10:01:39.426Z,18.48
2016-05-12T10:02:39.413Z,18.29
2016-05-12T10:03:39.557Z,18.09
2016-05-12T10:04:39.404Z,17.8
2016-05-12T10:05:39.406Z,17.21
2016-05-12T10:06:39.394Z,17.32
2016-05-12T10:07:39.396Z,17.21
2016-05-12T10:08:39.399Z,17.31
2016-05-12T10:09:39.402Z,17.32
2016-05-12T10:10:39.404Z,17.32
2016-05-12T10:11:39.391Z,17.42
2016-05-12T10:12:39.393Z,17.42
2016-05-12T10:13:39.380Z,17.23
2016-05-12T10:14:39.383Z,17.03
2016-05-12T10:15:39.385Z,16.94
2016-05-12T10:16:39.560Z,17.23
2016-05-12T10:17:39.376Z,17.23
2016-05-12T10:18:39.379Z,16.94
2016-05-12T10:19:39.382Z,16.26
2016-05-12T10:20:39.368Z,16.26
2016-05-12T10:21:39.371Z,16.26
2016-05-12T10:22:39.373Z,16.25
2016-05-12T10:23:39.361Z,16.15
2016-05-12T10:24:39.363Z,16.74
2016-05-12T10:25:39.366Z,16.63
2016-05-12T10:26:39.353Z,16.44
2016-05-12T10:27:39.356Z,16.53
2016-05-12T10:28:39.359Z,16.83
2016-05-12T10:29:39.345Z,17.12
2016-05-12T10:30:39.348Z,16.73
2016-05-12T10:31:39.350Z,17.02
2016-05-12T10:32:39.338Z,17.4
2016-05-12T10:33:39.342Z,17.01
2016-05-12T10:34:39.327Z,17.3
2016-05-12T10:35:39.330Z,17.3
2016-05-12T10:36:39.333Z,17.79
2016-05-12T10:37:39.320Z,17.4
2016-05-12T10:38:39.323Z,17.4
2016-05-12T10:39:39.310Z,17.4
2016-05-12T10:40:39.313Z,17.5
2016-05-12T10:41:39.315Z,17.4
2016-05-12T10:42:39.302Z,17.11
2016-05-12T10:43:39.305Z,16.93
2016-05-12T10:44:39.292Z,16.63
2016-05-12T10:45:39.294Z,16.34
2016-05-12T10:46:39.297Z,16.44
2016-05-12T10:47:39.285Z,16.63
2016-05-12T10:48:39.288Z,16.05
2016-05-12T10:49:39.274Z,16.44
2016-05-12T10:50:39.276Z,16.05
2016-05-12T10:51:39.280Z,16.05
2016-05-12T10:52:39.283Z,16.05
2016-05-12T10:53:39.270Z,16.05
2016-05-12T10:54:39.273Z,16.05
2016-05-12T10:55:39.275Z,15.95
2016-05-12T10:56:39.262Z,15.86
2016-05-12T10:57:39.281Z,16.05
2016-05-12T10:58:39.268Z,15.86
2016-05-12T10:59:39.254Z,15.86
2016-05-12T11:00:39.256Z,15.86
2016-05-12T11:01:39.259Z,15.85
2016-05-12T11:02:39.248Z,15.86
2016-05-12T11:03:39.249Z,15.96
2016-05-12T11:04:39.252Z,16.05
2016-05-12T11:05:39.255Z,16.05
2016-05-12T11:06:39.242Z,16.05
2016-05-12T11:07:39.245Z,16.24
2016-05-12T11:08:39.248Z,16.14
2016-05-12T11:09:39.233Z,16.14
2016-05-12T11:10:39.237Z,16.14
2016-05-12T11:11:39.240Z,16.34
2016-05-12T11:12:39.227Z,16.43
2016-05-12T11:13:39.230Z,16.24
2016-05-12T11:14:39.232Z,16.43
2016-05-12T11:15:39.219Z,16.24
2016-05-12T11:16:39.222Z,16.44
2016-05-12T11:17:39.224Z,15.95
2016-05-12T11:18:39.227Z,16.14
2016-05-12T11:19:39.215Z,16.14
2016-05-12T11:20:39.217Z,16.04
2016-05-12T11:21:39.220Z,15.94
2016-05-12T11:22:39.207Z,16.04
2016-05-12T11:23:39.209Z,16.43
2016-05-12T11:24:39.212Z,15.94
2016-05-12T11:25:39.215Z,16.24
2016-05-12T11:26:39.202Z,16.14
2016-05-12T11:27:39.204Z,16.05
2016-05-12T11:28:39.207Z,16.05
2016-05-12T11:29:39.195Z,15.86
2016-05-12T11:30:39.198Z,15.77
2016-05-12T11:31:39.200Z,15.67
2016-05-12T11:32:39.202Z,15.09
2016-05-12T11:33:39.190Z,14.99
2016-05-12T11:34:39.192Z,14.69
2016-05-12T11:35:39.194Z,14.7
2016-05-12T11:36:39.198Z,14.4
2016-05-12T11:37:39.184Z,14.69
2016-05-12T11:38:39.187Z,14.69
2016-05-12T11:39:39.189Z,14.79
2016-05-12T11:40:39.193Z,14.59
2016-05-12T11:41:39.180Z,14.89
2016-05-12T11:42:39.182Z,14.69
2016-05-12T11:43:39.186Z,14.4
2016-05-12T11:44:39.188Z,14.69
2016-05-12T11:45:39.175Z,14.59
2016-05-12T11:46:39.178Z,14.59
2016-05-12T11:47:39.180Z,14.5
2016-05-12T11:48:39.183Z,14.7
2016-05-12T11:49:39.170Z,14.89
2016-05-12T11:50:39.174Z,14.31
2016-05-12T11:51:39.176Z,14.41
2016-05-12T11:52:39.178Z,14.12
2016-05-12T11:53:39.165Z,14.22
2016-05-12T11:54:39.168Z,14.02
2016-05-12T11:55:39.171Z,14.02
2016-05-12T11:56:39.173Z,14.22
2016-05-12T11:57:39.160Z,13.92
2016-05-12T11:58:39.163Z,14.22
2016-05-12T11:59:39.165Z,14.12
2016-05-12T12:00:39.168Z,14.22
2016-05-12T12:01:39.171Z,13.73
2016-05-12T12:02:39.159Z,13.54
2016-05-12T12:03:39.162Z,13.34
2016-05-12T12:04:39.164Z,13.34
2016-05-12T12:05:39.166Z,13.73
2016-05-12T12:06:39.153Z,13.43
2016-05-12T12:07:39.156Z,13.34
2016-05-12T12:08:39.158Z,13.63
2016-05-12T12:09:39.146Z,13.54
2016-05-12T12:10:39.148Z,13.53
2016-05-12T12:11:39.150Z,13.34
2016-05-12T12:12:39.153Z,13.64
2016-05-12T12:13:39.156Z,13.73
2016-05-12T12:14:39.143Z,13.64
2016-05-12T12:15:39.161Z,13.54
2016-05-12T12:16:39.149Z,13.05
2016-05-12T12:17:39.152Z,12.96
2016-05-12T12:18:39.155Z,12.57
2016-05-12T12:19:39.141Z,12.86
2016-05-12T12:20:39.144Z,12.37
2016-05-12T12:21:39.146Z,13.05
2016-05-12T12:22:39.150Z,12.66
2016-05-12T12:23:39.152Z,12.28
2016-05-12T12:24:39.140Z,12.48
2016-05-12T12:25:39.142Z,12.28
2016-05-12T12:26:39.145Z,11.69
2016-05-12T12:27:39.148Z,11.89
2016-05-12T12:28:39.134Z,12.08
2016-05-12T12:29:39.153Z,12.28
2016-05-12T12:30:39.139Z,12.28
2016-05-12T12:31:39.173Z,12.08
2016-05-12T12:32:39.146Z,11.69
2016-05-12T12:33:39.132Z,11.5
2016-05-12T12:34:39.134Z,11.21
2016-05-12T12:35:39.137Z,11.3
2016-05-12T12:36:39.140Z,11.5
2016-05-12T12:37:39.143Z,11.6
2016-05-12T12:38:39.146Z,11.6
2016-05-12T12:39:39.133Z,11.4
2016-05-12T12:40:39.136Z,11.79
2016-05-12T12:41:39.139Z,11.79
2016-05-12T12:42:39.141Z,11.49
2016-05-12T12:43:39.144Z,12.18
2016-05-12T12:44:39.130Z,12.08
2016-05-12T12:45:39.133Z,11.99
2016-05-12T12:46:39.136Z,12.08
2016-05-12T12:47:39.169Z,11.69
2016-05-12T12:48:39.141Z,12.28
2016-05-12T12:49:39.127Z,12.18
2016-05-12T12:50:39.131Z,11.99
2016-05-12T12:51:39.133Z,11.99
2016-05-12T12:52:39.136Z,12.09
2016-05-12T12:53:39.139Z,12.29
2016-05-12T12:54:39.126Z,12.29
2016-05-12T12:55:39.129Z,11.61